sensor_id;sensor_type;location;lat;lon;timestamp;pressure;altitude;pressure_sealevel;temperature;humidity
44079;BME280;29744;49.078;12.878;2023-02-28T00:03:44;97092.81;;;15.04;33.21
44079;BME280;29744;49.078;12.878;2023-02-28T00:08:45;97093.72;;;14.99;33.14
44079;BME280;29744;49.078;12.878;2023-02-28T00:13:46;97088.13;;;14.96;33.44
44079;BME280;29744;49.078;12.878;2023-02-28T00:18:47;97085.25;;;14.92;33.60
44079;BME280;29744;49.078;12.878;2023-02-28T00:23:48;97080.78;;;14.88;33.42
44079;BME280;29744;49.078;12.878;2023-02-28T00:28:49;97076.00;;;14.85;33.41
44079;BME280;29744;49.078;12.878;2023-02-28T00:33:49;97070.44;;;14.81;33.91
44079;BME280;29744;49.078;12.878;2023-02-28T00:38:50;97072.94;;;14.77;33.55
44079;BME280;29744;49.078;12.878;2023-02-28T00:43:51;97068.97;;;14.75;33.58
44079;BME280;29744;49.078;12.878;2023-02-28T00:48:51;97064.50;;;14.70;33.75
44079;BME280;29744;49.078;12.878;2023-02-28T00:53:51;97062.41;;;14.67;33.94
44079;BME280;29744;49.078;12.878;2023-02-28T00:58:52;97067.31;;;14.65;33.72
44079;BME280;29744;49.078;12.878;2023-02-28T01:03:52;97065.56;;;14.61;33.56
44079;BME280;29744;49.078;12.878;2023-02-28T01:08:52;97056.16;;;14.58;34.04
44079;BME280;29744;49.078;12.878;2023-02-28T01:13:52;97054.09;;;14.55;34.01
44079;BME280;29744;49.078;12.878;2023-02-28T01:18:53;97044.69;;;14.53;33.90
44079;BME280;29744;49.078;12.878;2023-02-28T01:23:56;97044.53;;;14.49;34.09
44079;BME280;29744;49.078;12.878;2023-02-28T01:28:57;97044.03;;;14.47;33.93
44079;BME280;29744;49.078;12.878;2023-02-28T01:33:57;97038.44;;;14.43;33.94
44079;BME280;29744;49.078;12.878;2023-02-28T01:38:57;97036.38;;;14.40;33.87
44079;BME280;29744;49.078;12.878;2023-02-28T01:44:02;97035.09;;;14.38;33.97
44079;BME280;29744;49.078;12.878;2023-02-28T01:49:08;97040.31;;;14.34;33.76
44079;BME280;29744;49.078;12.878;2023-02-28T01:54:12;97039.00;;;14.32;34.10
44079;BME280;29744;49.078;12.878;2023-02-28T01:59:21;97034.22;;;14.29;34.14
44079;BME280;29744;49.078;12.878;2023-02-28T02:04:26;97026.75;;;14.26;34.05
44079;BME280;29744;49.078;12.878;2023-02-28T02:09:31;97027.38;;;14.23;34.15
44079;BME280;29744;49.078;12.878;2023-02-28T02:15:05;97017.16;;;14.19;33.87
44079;BME280;29744;49.078;12.878;2023-02-28T02:20:37;97018.09;;;14.15;34.30
44079;BME280;29744;49.078;12.878;2023-02-28T02:25:45;97010.00;;;14.15;34.36
44079;BME280;29744;49.078;12.878;2023-02-28T02:35:57;97011.69;;;14.11;34.18
44079;BME280;29744;49.078;12.878;2023-02-28T02:46:17;97010.72;;;14.07;34.50
44079;BME280;29744;49.078;12.878;2023-02-28T02:51:20;97012.13;;;14.04;34.28
44079;BME280;29744;49.078;12.878;2023-02-28T02:56:26;97019.72;;;14.02;34.45
44079;BME280;29744;49.078;12.878;2023-02-28T03:01:31;97015.75;;;14.00;34.54
44079;BME280;29744;49.078;12.878;2023-02-28T03:06:32;97010.66;;;13.98;33.97
44079;BME280;29744;49.078;12.878;2023-02-28T03:11:32;97020.94;;;13.96;33.98
44079;BME280;29744;49.078;12.878;2023-02-28T03:27:23;97029.78;;;13.88;34.16
44079;BME280;29744;49.078;12.878;2023-02-28T03:32:35;97028.47;;;13.85;34.19
44079;BME280;29744;49.078;12.878;2023-02-28T03:37:41;97032.28;;;13.84;34.50
44079;BME280;29744;49.078;12.878;2023-02-28T03:42:45;97035.28;;;13.83;34.48
44079;BME280;29744;49.078;12.878;2023-02-28T03:47:52;97033.69;;;13.82;34.54
44079;BME280;29744;49.078;12.878;2023-02-28T03:52:58;97043.94;;;13.80;34.20
44079;BME280;29744;49.078;12.878;2023-02-28T03:58:11;97041.84;;;13.77;34.36
44079;BME280;29744;49.078;12.878;2023-02-28T04:03:15;97035.97;;;13.75;34.28
44079;BME280;29744;49.078;12.878;2023-02-28T04:08:15;97042.47;;;13.74;34.29
44079;BME280;29744;49.078;12.878;2023-02-28T04:13:15;97038.47;;;13.71;34.30
44079;BME280;29744;49.078;12.878;2023-02-28T04:18:15;97041.47;;;13.70;34.52
44079;BME280;29744;49.078;12.878;2023-02-28T04:23:16;97046.06;;;13.69;34.55
44079;BME280;29744;49.078;12.878;2023-02-28T04:28:16;97040.97;;;13.68;34.61
44079;BME280;29744;49.078;12.878;2023-02-28T04:33:16;97039.69;;;13.65;34.47
44079;BME280;29744;49.078;12.878;2023-02-28T04:38:16;97044.59;;;13.63;34.49
44079;BME280;29744;49.078;12.878;2023-02-28T04:43:17;97045.88;;;13.66;34.72
44079;BME280;29744;49.078;12.878;2023-02-28T04:48:17;97044.78;;;13.67;34.38
44079;BME280;29744;49.078;12.878;2023-02-28T04:53:17;97047.66;;;13.70;34.68
44079;BME280;29744;49.078;12.878;2023-02-28T04:58:18;97039.16;;;13.77;34.63
44079;BME280;29744;49.078;12.878;2023-02-28T05:03:18;97041.97;;;13.85;34.30
44079;BME280;29744;49.078;12.878;2023-02-28T05:08:20;97039.03;;;13.96;34.50
44079;BME280;29744;49.078;12.878;2023-02-28T05:13:20;97045.19;;;14.10;34.70
44079;BME280;29744;49.078;12.878;2023-02-28T05:18:21;97042.75;;;14.22;34.37
44079;BME280;29744;49.078;12.878;2023-02-28T05:23:22;97043.19;;;14.38;34.27
44079;BME280;29744;49.078;12.878;2023-02-28T05:28:23;97046.28;;;14.54;34.48
44079;BME280;29744;49.078;12.878;2023-02-28T05:33:23;97044.00;;;14.69;34.03
44079;BME280;29744;49.078;12.878;2023-02-28T05:38:24;97048.22;;;14.84;33.72
44079;BME280;29744;49.078;12.878;2023-02-28T05:43:24;97042.09;;;15.01;33.95
44079;BME280;29744;49.078;12.878;2023-02-28T05:48:24;97047.91;;;15.17;33.60
44079;BME280;29744;49.078;12.878;2023-02-28T05:53:26;97045.56;;;15.32;33.52
44079;BME280;29744;49.078;12.878;2023-02-28T05:58:27;97055.13;;;15.47;33.48
44079;BME280;29744;49.078;12.878;2023-02-28T06:03:30;97051.19;;;15.62;33.41
44079;BME280;29744;49.078;12.878;2023-02-28T06:08:30;97053.44;;;15.77;33.16
44079;BME280;29744;49.078;12.878;2023-02-28T06:13:31;97062.56;;;15.90;33.14
44079;BME280;29744;49.078;12.878;2023-02-28T06:18:31;97066.69;;;16.04;33.22
44079;BME280;29744;49.078;12.878;2023-02-28T06:23:31;97072.28;;;16.17;32.91
44079;BME280;29744;49.078;12.878;2023-02-28T06:28:31;97078.63;;;16.29;33.01
44079;BME280;29744;49.078;12.878;2023-02-28T06:33:32;97080.72;;;16.41;32.90
44079;BME280;29744;49.078;12.878;2023-02-28T06:38:32;97085.81;;;16.51;32.74
44079;BME280;29744;49.078;12.878;2023-02-28T06:43:36;97088.53;;;16.60;32.79
44079;BME280;29744;49.078;12.878;2023-02-28T06:48:37;97097.75;;;16.67;32.63
44079;BME280;29744;49.078;12.878;2023-02-28T06:53:37;97107.63;;;16.72;32.55
44079;BME280;29744;49.078;12.878;2023-02-28T06:58:38;97111.28;;;16.76;32.48
44079;BME280;29744;49.078;12.878;2023-02-28T07:03:39;97109.06;;;16.78;32.24
44079;BME280;29744;49.078;12.878;2023-02-28T07:08:39;97106.34;;;16.78;31.97
44079;BME280;29744;49.078;12.878;2023-02-28T07:13:41;97117.97;;;16.79;32.02
44079;BME280;29744;49.078;12.878;2023-02-28T07:18:41;97114.47;;;16.78;32.26
44079;BME280;29744;49.078;12.878;2023-02-28T07:23:41;97121.31;;;16.76;32.50
44079;BME280;29744;49.078;12.878;2023-02-28T07:28:42;97120.06;;;16.73;32.18
44079;BME280;29744;49.078;12.878;2023-02-28T07:33:43;97124.19;;;16.70;32.46
44079;BME280;29744;49.078;12.878;2023-02-28T07:38:44;97106.22;;;16.66;31.93
44079;BME280;29744;49.078;12.878;2023-02-28T07:43:47;97122.63;;;16.61;32.20
44079;BME280;29744;49.078;12.878;2023-02-28T07:48:48;97120.88;;;16.56;32.49
44079;BME280;29744;49.078;12.878;2023-02-28T07:53:48;97127.22;;;16.52;32.30
44079;BME280;29744;49.078;12.878;2023-02-28T07:58:48;97123.09;;;16.46;32.47
44079;BME280;29744;49.078;12.878;2023-02-28T08:03:49;97131.84;;;16.42;32.66
44079;BME280;29744;49.078;12.878;2023-02-28T08:08:49;97138.50;;;16.36;32.25
44079;BME280;29744;49.078;12.878;2023-02-28T08:13:50;97135.16;;;16.31;32.13
44079;BME280;29744;49.078;12.878;2023-02-28T08:18:53;97126.72;;;16.24;32.48
44079;BME280;29744;49.078;12.878;2023-02-28T08:23:54;97129.56;;;16.19;32.41
44079;BME280;29744;49.078;12.878;2023-02-28T08:28:54;97128.63;;;16.15;32.55
44079;BME280;29744;49.078;12.878;2023-02-28T08:33:54;97117.47;;;16.07;32.48
44079;BME280;29744;49.078;12.878;2023-02-28T08:38:58;97124.94;;;16.02;32.22
44079;BME280;29744;49.078;12.878;2023-02-28T08:43:59;97131.63;;;15.96;32.63
44079;BME280;29744;49.078;12.878;2023-02-28T08:49:00;97132.88;;;15.90;32.74
44079;BME280;29744;49.078;12.878;2023-02-28T08:54:01;97136.53;;;15.85;32.35
44079;BME280;29744;49.078;12.878;2023-02-28T08:59:02;97136.97;;;15.78;32.94
44079;BME280;29744;49.078;12.878;2023-02-28T09:04:02;97134.41;;;15.73;32.76
44079;BME280;29744;49.078;12.878;2023-02-28T09:09:03;97133.75;;;15.68;32.78
44079;BME280;29744;49.078;12.878;2023-02-28T09:14:06;97130.09;;;15.64;32.89
44079;BME280;29744;49.078;12.878;2023-02-28T09:19:06;97131.03;;;15.59;32.44
44079;BME280;29744;49.078;12.878;2023-02-28T09:24:06;97128.47;;;15.54;32.65
44079;BME280;29744;49.078;12.878;2023-02-28T09:29:07;97128.28;;;15.51;32.91
44079;BME280;29744;49.078;12.878;2023-02-28T09:34:07;97116.81;;;15.45;33.08
44079;BME280;29744;49.078;12.878;2023-02-28T09:39:08;97121.25;;;15.41;32.69
44079;BME280;29744;49.078;12.878;2023-02-28T09:44:15;97118.69;;;15.36;32.81
44079;BME280;29744;49.078;12.878;2023-02-28T09:49:22;97124.72;;;15.33;32.93
44079;BME280;29744;49.078;12.878;2023-02-28T09:54:26;97122.97;;;15.28;33.36
44079;BME280;29744;49.078;12.878;2023-02-28T09:59:39;97121.50;;;15.22;32.78
44079;BME280;29744;49.078;12.878;2023-02-28T10:04:43;97128.63;;;15.18;33.48
44079;BME280;29744;49.078;12.878;2023-02-28T10:09:51;97120.34;;;15.14;32.97
44079;BME280;29744;49.078;12.878;2023-02-28T10:14:53;97132.88;;;15.10;33.56
44079;BME280;29744;49.078;12.878;2023-02-28T10:20:01;97139.22;;;15.06;33.31
44079;BME280;29744;49.078;12.878;2023-02-28T10:25:22;97137.41;;;15.01;33.16
44079;BME280;29744;49.078;12.878;2023-02-28T10:30:22;97145.34;;;14.98;33.42
44079;BME280;29744;49.078;12.878;2023-02-28T10:35:25;97144.84;;;14.96;33.08
44079;BME280;29744;49.078;12.878;2023-02-28T10:40:32;97142.28;;;14.91;33.26
44079;BME280;29744;49.078;12.878;2023-02-28T10:45:34;97140.19;;;14.88;33.61
44079;BME280;29744;49.078;12.878;2023-02-28T10:50:50;97143.81;;;14.83;33.64
44079;BME280;29744;49.078;12.878;2023-02-28T10:55:59;97127.44;;;14.79;33.52
44079;BME280;29744;49.078;12.878;2023-02-28T11:01:00;97135.34;;;14.76;33.12
44079;BME280;29744;49.078;12.878;2023-02-28T11:06:12;97130.56;;;14.73;33.41
44079;BME280;29744;49.078;12.878;2023-02-28T11:11:14;97133.09;;;14.69;33.42
44079;BME280;29744;49.078;12.878;2023-02-28T11:16:16;97130.22;;;14.66;33.26
44079;BME280;29744;49.078;12.878;2023-02-28T11:21:29;97133.84;;;14.61;33.73
44079;BME280;29744;49.078;12.878;2023-02-28T11:26:41;97125.25;;;14.59;33.61
44079;BME280;29744;49.078;12.878;2023-02-28T11:31:41;97121.56;;;14.55;33.81
44079;BME280;29744;49.078;12.878;2023-02-28T11:36:42;97116.47;;;14.54;33.73
44079;BME280;29744;49.078;12.878;2023-02-28T11:42:05;97115.50;;;14.49;33.88
44079;BME280;29744;49.078;12.878;2023-02-28T11:57:39;97108.13;;;14.41;34.12
44079;BME280;29744;49.078;12.878;2023-02-28T12:19:14;97104.88;;;14.31;33.69
44079;BME280;29744;49.078;12.878;2023-02-28T12:24:27;97100.88;;;14.28;33.71
44079;BME280;29744;49.078;12.878;2023-02-28T12:29:46;97098.50;;;14.27;33.89
44079;BME280;29744;49.078;12.878;2023-02-28T12:34:52;97106.09;;;14.25;34.21
44079;BME280;29744;49.078;12.878;2023-02-28T12:40:00;97095.59;;;14.23;34.36
44079;BME280;29744;49.078;12.878;2023-02-28T12:45:11;97081.59;;;14.21;34.18
44079;BME280;29744;49.078;12.878;2023-02-28T12:50:14;97091.59;;;14.21;33.87
44079;BME280;29744;49.078;12.878;2023-02-28T13:00:22;97083.63;;;14.15;34.00
44079;BME280;29744;49.078;12.878;2023-02-28T13:10:46;97076.44;;;14.11;34.38
44079;BME280;29744;49.078;12.878;2023-02-28T13:16:03;97080.53;;;14.08;34.22
44079;BME280;29744;49.078;12.878;2023-02-28T13:21:04;97086.25;;;14.07;34.20
44079;BME280;29744;49.078;12.878;2023-02-28T13:26:06;97090.84;;;14.06;34.09
44079;BME280;29744;49.078;12.878;2023-02-28T13:31:06;97091.44;;;14.03;34.37
44079;BME280;29744;49.078;12.878;2023-02-28T13:46:29;97086.97;;;13.99;34.21
44079;BME280;29744;49.078;12.878;2023-02-28T13:51:45;97084.88;;;13.96;34.43
44079;BME280;29744;49.078;12.878;2023-02-28T13:57:41;97082.00;;;13.92;34.29
44079;BME280;29744;49.078;12.878;2023-02-28T14:07:53;97094.97;;;13.90;34.09
44079;BME280;29744;49.078;12.878;2023-02-28T14:12:55;97090.69;;;13.89;34.31
44079;BME280;29744;49.078;12.878;2023-02-28T14:17:56;97086.38;;;13.88;34.29
44079;BME280;29744;49.078;12.878;2023-02-28T14:23:16;97089.09;;;13.88;34.42
44079;BME280;29744;49.078;12.878;2023-02-28T14:28:41;97084.31;;;13.85;34.20
44079;BME280;29744;49.078;12.878;2023-02-28T14:33:59;97082.72;;;13.84;34.57
44079;BME280;29744;49.078;12.878;2023-02-28T14:39:07;97089.19;;;13.83;34.17
44079;BME280;29744;49.078;12.878;2023-02-28T14:44:15;97091.09;;;13.82;34.57
44079;BME280;29744;49.078;12.878;2023-02-28T14:54:22;97093.28;;;13.80;34.46
44079;BME280;29744;49.078;12.878;2023-02-28T14:59:32;97095.47;;;13.78;34.33
44079;BME280;29744;49.078;12.878;2023-02-28T15:04:33;97090.38;;;13.77;34.19
44079;BME280;29744;49.078;12.878;2023-02-28T15:09:33;97091.47;;;13.76;34.76
44079;BME280;29744;49.078;12.878;2023-02-28T15:14:34;97090.69;;;13.75;34.38
44079;BME280;29744;49.078;12.878;2023-02-28T15:19:41;97101.75;;;13.74;34.39
44079;BME280;29744;49.078;12.878;2023-02-28T15:24:44;97100.47;;;13.71;34.68
44079;BME280;29744;49.078;12.878;2023-02-28T15:29:48;97101.25;;;13.72;34.56
44079;BME280;29744;49.078;12.878;2023-02-28T15:34:51;97094.59;;;13.69;34.65
44079;BME280;29744;49.078;12.878;2023-02-28T15:39:51;97097.59;;;13.68;34.51
44079;BME280;29744;49.078;12.878;2023-02-28T15:44:52;97095.97;;;13.67;34.25
44079;BME280;29744;49.078;12.878;2023-02-28T15:49:57;97098.19;;;13.65;34.58
44079;BME280;29744;49.078;12.878;2023-02-28T15:54:58;97098.47;;;13.63;34.39
44079;BME280;29744;49.078;12.878;2023-02-28T16:00:11;97100.69;;;13.61;35.11
44079;BME280;29744;49.078;12.878;2023-02-28T16:05:28;97100.97;;;13.60;34.75
44079;BME280;29744;49.078;12.878;2023-02-28T16:10:30;97116.25;;;13.50;34.65
44079;BME280;29744;49.078;12.878;2023-02-28T16:15:35;97120.44;;;13.57;34.62
44079;BME280;29744;49.078;12.878;2023-02-28T16:20:41;97126.84;;;13.61;34.55
44079;BME280;29744;49.078;12.878;2023-02-28T16:25:44;97131.81;;;13.67;34.44
44079;BME280;29744;49.078;12.878;2023-02-28T16:30:46;97131.13;;;13.75;33.30
44079;BME280;29744;49.078;12.878;2023-02-28T16:35:46;97129.72;;;13.78;32.12
44079;BME280;29744;49.078;12.878;2023-02-28T16:40:49;97143.13;;;13.83;31.88
44079;BME280;29744;49.078;12.878;2023-02-28T16:45:55;97146.69;;;13.92;32.17
44079;BME280;29744;49.078;12.878;2023-02-28T16:50:56;97147.28;;;14.03;32.01
44079;BME280;29744;49.078;12.878;2023-02-28T16:55:57;97152.66;;;14.16;32.18
44079;BME280;29744;49.078;12.878;2023-02-28T17:00:57;97148.53;;;14.33;32.70
44079;BME280;29744;49.078;12.878;2023-02-28T17:05:58;97156.47;;;14.52;32.47
44079;BME280;29744;49.078;12.878;2023-02-28T17:10:58;97162.47;;;14.71;32.48
44079;BME280;29744;49.078;12.878;2023-02-28T17:15:59;97168.31;;;14.87;32.51
44079;BME280;29744;49.078;12.878;2023-02-28T17:21:00;97171.63;;;15.06;32.11
44079;BME280;29744;49.078;12.878;2023-02-28T17:26:00;97180.94;;;15.22;32.29
44079;BME280;29744;49.078;12.878;2023-02-28T17:31:01;97181.34;;;15.38;32.10
44079;BME280;29744;49.078;12.878;2023-02-28T17:36:01;97188.25;;;15.53;32.34
44079;BME280;29744;49.078;12.878;2023-02-28T17:41:01;97194.34;;;15.67;32.27
44079;BME280;29744;49.078;12.878;2023-02-28T17:46:02;97198.56;;;15.82;31.87
44079;BME280;29744;49.078;12.878;2023-02-28T17:51:02;97195.75;;;15.95;32.41
44079;BME280;29744;49.078;12.878;2023-02-28T17:56:02;97195.13;;;16.07;31.91
44079;BME280;29744;49.078;12.878;2023-02-28T18:01:03;97199.94;;;16.19;31.94
44079;BME280;29744;49.078;12.878;2023-02-28T18:06:03;97198.53;;;16.30;31.94
44079;BME280;29744;49.078;12.878;2023-02-28T18:11:04;97189.00;;;16.41;32.08
44079;BME280;29744;49.078;12.878;2023-02-28T18:16:04;97187.59;;;16.52;31.87
44079;BME280;29744;49.078;12.878;2023-02-28T18:21:06;97184.91;;;16.61;31.56
44079;BME280;29744;49.078;12.878;2023-02-28T18:26:07;97179.16;;;16.71;31.74
44079;BME280;29744;49.078;12.878;2023-02-28T18:31:09;97183.47;;;16.81;31.79
44079;BME280;29744;49.078;12.878;2023-02-28T18:36:09;97186.47;;;16.88;31.92
44079;BME280;29744;49.078;12.878;2023-02-28T18:41:10;97184.09;;;16.95;31.59
44079;BME280;29744;49.078;12.878;2023-02-28T18:46:12;97174.66;;;17.01;31.26
44079;BME280;29744;49.078;12.878;2023-02-28T18:51:19;97177.53;;;17.04;31.14
44079;BME280;29744;49.078;12.878;2023-02-28T18:56:23;97176.88;;;17.08;31.47
44079;BME280;29744;49.078;12.878;2023-02-28T19:01:26;97183.09;;;17.08;31.17
44079;BME280;29744;49.078;12.878;2023-02-28T19:06:30;97183.09;;;17.08;31.10
44079;BME280;29744;49.078;12.878;2023-02-28T19:11:30;97179.13;;;17.05;31.14
44079;BME280;29744;49.078;12.878;2023-02-28T19:16:31;97179.44;;;17.04;31.26
44079;BME280;29744;49.078;12.878;2023-02-28T19:21:31;97191.72;;;17.01;31.68
44079;BME280;29744;49.078;12.878;2023-02-28T19:26:31;97204.78;;;16.99;31.05
44079;BME280;29744;49.078;12.878;2023-02-28T19:31:32;97193.47;;;16.97;31.35
44079;BME280;29744;49.078;12.878;2023-02-28T19:36:32;97186.47;;;16.96;31.57
44079;BME280;29744;49.078;12.878;2023-02-28T19:41:33;97184.09;;;16.95;31.38
44079;BME280;29744;49.078;12.878;2023-02-28T19:46:33;97191.09;;;16.96;31.25
44079;BME280;29744;49.078;12.878;2023-02-28T19:51:33;97190.28;;;16.95;31.15
44079;BME280;29744;49.078;12.878;2023-02-28T19:56:34;97191.09;;;16.96;31.16
44079;BME280;29744;49.078;12.878;2023-02-28T20:01:34;97196.50;;;16.96;31.12
44079;BME280;29744;49.078;12.878;2023-02-28T20:06:34;97192.69;;;16.97;31.67
44079;BME280;29744;49.078;12.878;2023-02-28T20:11:35;97192.69;;;16.97;31.60
44079;BME280;29744;49.078;12.878;2023-02-28T20:16:35;97188.38;;;16.96;31.39
44079;BME280;29744;49.078;12.878;2023-02-28T20:21:35;97177.88;;;16.94;31.61
44079;BME280;29744;49.078;12.878;2023-02-28T20:26:37;97178.97;;;16.93;31.55
44079;BME280;29744;49.078;12.878;2023-02-28T20:31:38;97178.50;;;16.91;31.59
44079;BME280;29744;49.078;12.878;2023-02-28T20:36:38;97183.78;;;16.88;31.19
44079;BME280;29744;49.078;12.878;2023-02-28T20:41:39;97177.88;;;16.86;31.25
44079;BME280;29744;49.078;12.878;2023-02-28T20:46:39;97185.53;;;16.84;31.52
44079;BME280;29744;49.078;12.878;2023-02-28T20:51:40;97172.94;;;16.79;31.37
44079;BME280;29744;49.078;12.878;2023-02-28T20:56:41;97187.94;;;16.77;31.31
44079;BME280;29744;49.078;12.878;2023-02-28T21:01:41;97181.25;;;16.74;31.86
44079;BME280;29744;49.078;12.878;2023-02-28T21:06:42;97178.38;;;16.70;31.62
44079;BME280;29744;49.078;12.878;2023-02-28T21:11:45;97189.03;;;16.67;31.69
44079;BME280;29744;49.078;12.878;2023-02-28T21:16:45;97190.00;;;16.62;31.68
44079;BME280;29744;49.078;12.878;2023-02-28T21:21:46;97198.75;;;16.59;31.54
44079;BME280;29744;49.078;12.878;2023-02-28T21:26:47;97188.09;;;16.54;31.77
44079;BME280;29744;49.078;12.878;2023-02-28T21:31:49;97189.81;;;16.50;31.69
44079;BME280;29744;49.078;12.878;2023-02-28T21:36:51;97184.56;;;16.45;32.19
44079;BME280;29744;49.078;12.878;2023-02-28T21:41:52;97181.97;;;16.40;31.79
44079;BME280;29744;49.078;12.878;2023-02-28T21:46:53;97177.50;;;16.35;31.66
44079;BME280;29744;49.078;12.878;2023-02-28T21:51:56;97180.38;;;16.30;32.30
44079;BME280;29744;49.078;12.878;2023-02-28T21:56:56;97178.94;;;16.24;31.82
44079;BME280;29744;49.078;12.878;2023-02-28T22:01:57;97176.84;;;16.21;31.79
44079;BME280;29744;49.078;12.878;2023-02-28T22:06:57;97187.03;;;16.16;32.31
44079;BME280;29744;49.078;12.878;2023-02-28T22:11:57;97193.41;;;16.11;32.16
44079;BME280;29744;49.078;12.878;2023-02-28T22:16:57;97189.25;;;16.05;32.24
44079;BME280;29744;49.078;12.878;2023-02-28T22:21:58;97189.38;;;16.00;32.01
44079;BME280;29744;49.078;12.878;2023-02-28T22:26:58;97193.34;;;15.94;31.83
44079;BME280;29744;49.078;12.878;2023-02-28T22:31:58;97195.41;;;15.88;32.39
44079;BME280;29744;49.078;12.878;2023-02-28T22:36:59;97189.03;;;15.84;32.50
44079;BME280;29744;49.078;12.878;2023-02-28T22:41:59;97189.97;;;15.80;32.46
44079;BME280;29744;49.078;12.878;2023-02-28T22:46:59;97185.47;;;15.75;32.23
44079;BME280;29744;49.078;12.878;2023-02-28T22:51:59;97170.66;;;15.72;32.54
44079;BME280;29744;49.078;12.878;2023-02-28T22:57:00;97167.31;;;15.67;32.48
44079;BME280;29744;49.078;12.878;2023-02-28T23:02:00;97172.06;;;15.61;32.67
44079;BME280;29744;49.078;12.878;2023-02-28T23:07:00;97173.31;;;15.55;32.40
44079;BME280;29744;49.078;12.878;2023-02-28T23:12:00;97168.03;;;15.50;32.48
44079;BME280;29744;49.078;12.878;2023-02-28T23:17:01;97172.78;;;15.44;32.41
44079;BME280;29744;49.078;12.878;2023-02-28T23:22:02;97169.44;;;15.39;32.75
44079;BME280;29744;49.078;12.878;2023-02-28T23:27:04;97170.34;;;15.34;32.91
44079;BME280;29744;49.078;12.878;2023-02-28T23:32:04;97186.72;;;15.29;32.93
44079;BME280;29744;49.078;12.878;2023-02-28T23:37:05;97182.22;;;15.25;32.53
44079;BME280;29744;49.078;12.878;2023-02-28T23:42:05;97171.56;;;15.20;32.44
44079;BME280;29744;49.078;12.878;2023-02-28T23:47:05;97168.69;;;15.16;32.85
44079;BME280;29744;49.078;12.878;2023-02-28T23:52:06;97171.50;;;15.11;32.72
44079;BME280;29744;49.078;12.878;2023-02-28T23:57:06;97165.94;;;15.07;32.69
